Terminal Aerodrome Forecast
Issued by NWS

Home | Current Version | Previous Version | Text Only | Print | Product List | Glossary On
Versions: 1 2 3 4 5 6 7 8 9 10 11 12 13 14 15 16 17 18 19 20 21 22 23 24 25
000
FTUS42 KGSP 202147 AAB
TAFGMU
TAF AMD
KGMU 202147Z 2022/2118 23008KT P6SM FEW045
     FM210300 12004KT 4SM BR OVC012
     FM210700 16005KT 1SM BR VCSH OVC004
     FM211400 19006KT P6SM OVC006 PROB30 2114/2118 3/4SM -RA OVC003=

USA.gov is the U.S. government's official web portal to all federal, state and local government web resources and services.